Time;durP1;ratioP1;P1;durP2;ratioP2;P2;SDS_P1;SDS_P2;PMS_P1;PMS_P2;Temp;Humidity;BMP_temperature;BMP_pressure;BME280_temperature;BME280_humidity;BME280_pressure;Samples;Min_cycle;Max_cycle;Signal;HPM_P1;HPM_P2
2022/08/16 00:05:17;;;;;;;1.70;1.50;;;31.50;95.10;;;;;;6186998;23;20227;-96
2022/08/16 00:07:49;;;;;;;1.65;1.30;;;31.30;95.10;;;;;;6201731;23;20188;-94
2022/08/16 00:10:33;;;;;;;2.72;1.45;;;31.10;95.00;;;;;;6208688;23;20192;-94
2022/08/16 00:13:07;;;;;;;1.58;1.38;;;30.70;95.60;;;;;;6200755;23;20207;-96
2022/08/16 00:15:43;;;;;;;1.98;1.30;;;30.70;95.70;;;;;;6202959;23;20181;-95
2022/08/16 00:18:23;;;;;;;3.58;1.42;;;30.30;95.50;;;;;;6195121;23;20641;-96
2022/08/16 00:21:00;;;;;;;2.95;1.40;;;30.50;96.00;;;;;;6194238;23;20169;-94
2022/08/16 00:23:33;;;;;;;1.40;1.30;;;30.60;96.30;;;;;;6195553;23;20274;-95
2022/08/16 00:26:17;;;;;;;1.90;1.40;;;30.30;96.20;;;;;;6198713;23;20170;-96
2022/08/16 00:29:09;;;;;;;2.63;1.50;;;30.40;95.80;;;;;;6192460;23;20208;-94
2022/08/16 00:31:40;;;;;;;1.80;1.27;;;30.60;96.20;;;;;;6199092;23;20240;-94
2022/08/16 00:34:31;;;;;;;1.60;1.50;;;30.60;96.40;;;;;;6195363;23;20188;-95
2022/08/16 00:37:22;;;;;;;2.35;1.40;;;30.70;96.20;;;;;;6196017;23;20177;-95
2022/08/16 00:40:15;;;;;;;3.90;1.50;;;30.30;96.10;;;;;;6201190;23;20188;-95
2022/08/16 00:43:10;;;;;;;2.03;1.58;;;30.30;96.60;;;;;;6191462;23;20196;-94
2022/08/16 00:45:57;;;;;;;1.85;1.40;;;30.40;97.50;;;;;;6194480;23;20177;-94
2022/08/16 00:48:32;;;;;;;1.67;1.42;;;30.50;96.30;;;;;;6194196;23;20177;-95
2022/08/16 00:51:17;;;;;;;2.80;1.40;;;30.40;96.20;;;;;;6193821;23;20177;-95
2022/08/16 00:53:50;;;;;;;1.55;1.45;;;30.50;96.00;;;;;;6194443;23;20477;-94
2022/08/16 00:56:28;;;;;;;1.40;1.30;;;30.40;96.50;;;;;;6191435;23;20181;-92
2022/08/16 00:59:25;;;;;;;1.50;1.40;;;30.40;96.80;;;;;;6192398;23;20240;-92
2022/08/16 01:01:57;;;;;;;4.40;1.70;;;30.60;97.40;;;;;;6191659;23;20192;-92
2022/08/16 01:04:29;;;;;;;2.08;1.77;;;30.70;97.10;;;;;;6197734;23;20231;-95
2022/08/16 01:07:04;;;;;;;1.50;1.40;;;30.80;97.20;;;;;;6198901;23;20177;-95
2022/08/16 01:09:40;;;;;;;3.03;1.40;;;30.60;97.20;;;;;;6193596;23;20265;-95
2022/08/16 01:12:13;;;;;;;1.55;1.40;;;30.70;96.80;;;;;;6194231;23;20247;-95
2022/08/16 01:15:01;;;;;;;2.72;1.30;;;30.90;96.90;;;;;;6199654;23;20156;-93
2022/08/16 01:17:35;;;;;;;2.97;1.58;;;30.80;96.50;;;;;;6207859;23;20228;-94
2022/08/16 01:20:16;;;;;;;1.95;1.40;;;30.80;96.10;;;;;;6203439;23;20188;-94
2022/08/16 01:23:04;;;;;;;2.00;1.77;;;31.10;96.20;;;;;;6199092;23;20181;-96
2022/08/16 01:25:45;;;;;;;1.50;1.40;;;31.50;95.50;;;;;;6203272;23;20187;-94
2022/08/16 01:28:38;;;;;;;3.03;1.50;;;31.80;95.00;;;;;;6197951;23;20205;-95
2022/08/16 01:31:20;;;;;;;2.00;1.60;;;31.90;94.70;;;;;;6207698;23;20228;-96
2022/08/16 01:34:00;;;;;;;1.63;1.30;;;31.60;95.60;;;;;;6202797;23;20229;-93
2022/08/16 01:36:38;;;;;;;2.00;1.80;;;31.20;95.30;;;;;;6197434;23;20180;-93
2022/08/16 01:39:12;;;;;;;1.55;1.30;;;31.20;95.40;;;;;;6196663;23;20635;-94
2022/08/16 01:41:47;;;;;;;1.80;1.25;;;31.50;93.60;;;;;;6197636;23;20184;-95
2022/08/16 01:44:18;;;;;;;2.45;1.30;;;31.70;93.10;;;;;;6198497;23;20262;-95
2022/08/16 01:46:56;;;;;;;3.58;1.20;;;31.70;92.70;;;;;;6197109;23;20177;-95
2022/08/16 01:49:32;;;;;;;1.50;1.40;;;31.50;93.20;;;;;;6197309;23;20239;-95
2022/08/16 02:18:18;;;;;;;2.53;1.30;;;27.30;96.10;;;;;;6202889;23;20256;-95
2022/08/16 02:20:55;;;;;;;3.63;1.40;;;27.20;97.20;;;;;;6204217;23;20196;-95
2022/08/16 02:29:23;;;;;;;2.80;1.40;;;26.70;98.20;;;;;;6207409;23;20172;-96
2022/08/16 02:32:13;;;;;;;2.13;1.60;;;26.40;99.20;;;;;;6202356;23;20232;-96
2022/08/16 02:38:40;;;;;;;1.77;1.33;;;26.30;99.90;;;;;;6204425;23;20237;-94
2022/08/16 02:41:17;;;;;;;2.53;1.50;;;26.10;99.90;;;;;;6200764;23;20538;-96
2022/08/16 02:43:52;;;;;;;1.83;1.50;;;26.00;99.90;;;;;;6180778;23;20165;-95
2022/08/16 02:49:02;;;;;;;1.90;1.23;;;25.90;99.90;;;;;;6204058;23;20199;-96
2022/08/16 02:51:44;;;;;;;3.37;1.63;;;25.80;99.90;;;;;;6178103;23;20184;-96
2022/08/16 02:54:33;;;;;;;1.67;1.30;;;25.70;99.90;;;;;;6206150;23;20177;-96
2022/08/16 02:57:07;;;;;;;1.73;1.27;;;25.60;99.90;;;;;;6205742;23;20184;-96
2022/08/16 02:59:52;;;;;;;1.43;1.33;;;25.50;99.90;;;;;;6207146;23;20187;-95
2022/08/16 03:05:16;;;;;;;2.40;1.43;;;25.30;99.90;;;;;;6208064;23;20201;-96
2022/08/16 03:07:55;;;;;;;2.30;1.30;;;25.20;99.90;;;;;;6208976;23;20203;-95
2022/08/16 03:10:34;;;;;;;6.07;1.30;;;24.90;99.90;;;;;;6205228;23;20201;-95
2022/08/16 03:13:09;;;;;;;2.10;1.30;;;24.80;99.90;;;;;;6205598;23;20173;-95
2022/08/16 03:18:28;;;;;;;2.40;1.50;;;24.50;99.90;;;;;;6207990;23;20203;-95
2022/08/16 03:21:12;;;;;;;5.50;3.20;;;24.30;99.90;;;;;;6204512;23;20173;-95
2022/08/16 03:23:49;;;;;;;5.00;2.80;;;24.20;99.90;;;;;;6205972;23;20176;-96
2022/08/16 03:26:31;;;;;;;8.30;3.27;;;24.10;99.90;;;;;;6206383;23;20658;-95
2022/08/16 03:29:06;;;;;;;5.43;2.00;;;24.00;99.90;;;;;;6179439;23;20177;-96
2022/08/16 03:31:40;;;;;;;3.27;1.67;;;23.90;99.90;;;;;;6179282;23;20255;-96
2022/08/16 03:34:25;;;;;;;3.77;1.90;;;23.90;99.90;;;;;;6205629;23;20184;-96
2022/08/16 03:39:58;;;;;;;2.10;1.23;;;23.60;99.90;;;;;;6205806;23;20257;-95
2022/08/16 03:45:52;;;;;;;1.10;1.00;;;23.50;99.90;;;;;;6213764;23;20224;-95
2022/08/16 03:48:28;;;;;;;3.23;1.40;;;23.40;99.90;;;;;;6213879;23;20184;-95
2022/08/16 03:51:24;;;;;;;3.00;1.50;;;23.30;99.90;;;;;;6211255;23;20220;-96
2022/08/16 03:54:17;;;;;;;2.40;1.70;;;23.20;99.90;;;;;;6205801;23;20173;-95
2022/08/16 03:56:49;;;;;;;6.83;2.57;;;23.10;99.90;;;;;;6207264;23;20268;-95
2022/08/16 03:59:44;;;;;;;7.07;3.60;;;22.90;99.90;;;;;;6206929;23;20165;-95
2022/08/16 04:02:21;;;;;;;7.07;3.97;;;22.80;99.90;;;;;;6180597;23;20176;-95
2022/08/16 04:05:02;;;;;;;4.90;2.50;;;22.70;99.90;;;;;;6205976;23;20717;-95
2022/08/16 04:07:45;;;;;;;4.03;2.10;;;22.50;99.90;;;;;;6205579;23;20204;-96
2022/08/16 04:13:08;;;;;;;2.67;1.37;;;22.30;99.90;;;;;;6205507;23;20219;-95
2022/08/16 04:15:58;;;;;;;1.33;1.23;;;22.20;99.90;;;;;;6207372;23;20165;-95
2022/08/16 04:21:22;;;;;;;1.40;1.10;;;22.00;99.90;;;;;;6204770;23;20177;-95
2022/08/16 04:24:15;;;;;;;2.00;1.30;;;21.90;99.90;;;;;;6192084;23;20276;-95
2022/08/16 04:26:57;;;;;;;3.40;1.20;;;21.90;99.90;;;;;;6195402;23;20173;-95
2022/08/16 04:29:29;;;;;;;1.57;1.13;;;21.80;99.90;;;;;;6192934;23;20183;-96
2022/08/16 04:32:17;;;;;;;1.63;1.20;;;21.70;99.90;;;;;;6179236;23;20192;-95
2022/08/16 04:34:49;;;;;;;2.00;1.23;;;21.60;99.90;;;;;;6191465;23;20549;-96
2022/08/16 04:37:20;;;;;;;1.47;1.00;;;21.50;99.90;;;;;;6191633;23;20216;-96
2022/08/16 04:39:54;;;;;;;1.17;1.07;;;21.50;99.90;;;;;;6192986;23;20180;-95
2022/08/16 04:42:26;;;;;;;1.90;1.13;;;21.40;99.90;;;;;;6192303;23;20173;-95
2022/08/16 04:44:59;;;;;;;3.23;1.20;;;21.30;99.90;;;;;;6192550;23;20205;-95
2022/08/16 04:47:34;;;;;;;2.53;1.10;;;21.20;99.90;;;;;;6190916;23;20252;-95
2022/08/16 04:50:06;;;;;;;2.13;1.10;;;21.20;99.90;;;;;;6191643;23;20184;-95
2022/08/16 04:52:38;;;;;;;2.80;1.00;;;21.10;99.90;;;;;;6189892;23;20604;-96
2022/08/16 04:55:17;;;;;;;2.70;1.10;;;21.10;99.90;;;;;;6190932;23;20227;-95
2022/08/16 04:57:50;;;;;;;3.37;1.20;;;21.00;99.90;;;;;;6190084;23;20177;-94
2022/08/16 05:00:26;;;;;;;2.57;1.00;;;21.00;99.90;;;;;;6190580;23;20176;-95
2022/08/16 05:03:08;;;;;;;0.70;0.70;;;20.90;99.90;;;;;;6189520;23;20184;-95
2022/08/16 05:05:43;;;;;;;1.87;0.97;;;20.90;99.90;;;;;;6192509;23;20279;-94
2022/08/16 05:08:30;;;;;;;1.40;0.77;;;20.90;99.90;;;;;;6190794;23;20176;-95
2022/08/16 05:11:06;;;;;;;1.10;0.80;;;20.70;99.90;;;;;;6190300;23;20201;-95
2022/08/16 05:13:40;;;;;;;0.70;0.70;;;20.70;99.90;;;;;;6191260;23;20177;-94
2022/08/16 05:16:15;;;;;;;3.97;1.10;;;20.70;99.90;;;;;;6192002;23;20172;-94
2022/08/16 05:18:54;;;;;;;1.20;0.70;;;20.60;99.90;;;;;;6190560;23;20188;-95
2022/08/16 05:24:24;;;;;;;2.57;0.97;;;20.50;99.90;;;;;;6208384;23;20236;-94
2022/08/16 05:26:56;;;;;;;1.23;0.70;;;20.50;99.90;;;;;;6192481;23;20204;-94
2022/08/16 05:29:27;;;;;;;0.70;0.70;;;20.40;99.90;;;;;;6197967;23;20177;-94
2022/08/16 05:32:19;;;;;;;1.63;0.70;;;20.30;99.90;;;;;;6189226;23;20641;-94
2022/08/16 05:35:08;;;;;;;0.60;0.60;;;20.30;99.90;;;;;;6190464;23;20599;-94
2022/08/16 05:37:41;;;;;;;2.10;0.70;;;20.20;99.90;;;;;;6191072;23;20228;-94
2022/08/16 05:40:15;;;;;;;1.40;0.67;;;20.20;99.90;;;;;;6193635;23;20173;-95
2022/08/16 05:42:47;;;;;;;0.90;0.70;;;20.10;99.90;;;;;;6190315;23;20179;-95
2022/08/16 05:45:20;;;;;;;1.97;0.70;;;20.10;99.90;;;;;;6193139;23;20197;-94
2022/08/16 05:47:52;;;;;;;1.23;0.60;;;20.00;99.90;;;;;;6193583;23;20177;-94
2022/08/16 05:50:31;;;;;;;1.13;0.40;;;20.00;99.90;;;;;;6194634;23;20177;-96
2022/08/16 05:53:03;;;;;;;0.63;0.50;;;19.90;99.90;;;;;;6191266;23;20235;-95
2022/08/16 05:55:34;;;;;;;0.80;0.47;;;19.90;99.90;;;;;;6190105;23;20185;-95
2022/08/16 05:58:10;;;;;;;0.60;0.53;;;19.80;99.90;;;;;;6192176;23;20247;-95
2022/08/16 06:01:01;;;;;;;2.57;0.83;;;19.70;99.90;;;;;;6190243;23;20181;-95
2022/08/16 06:03:35;;;;;;;1.80;0.50;;;19.70;99.90;;;;;;6188909;23;20176;-94
2022/08/16 06:06:21;;;;;;;1.53;0.60;;;19.70;99.90;;;;;;6193669;23;20177;-95
2022/08/16 06:09:06;;;;;;;5.07;0.80;;;19.60;99.90;;;;;;6203040;23;20181;-94
2022/08/16 06:11:38;;;;;;;0.80;0.50;;;19.50;99.90;;;;;;6209998;23;20177;-95
2022/08/16 06:14:12;;;;;;;1.80;0.70;;;19.50;99.90;;;;;;6211148;23;20302;-95
2022/08/16 06:16:44;;;;;;;2.97;0.53;;;19.40;99.90;;;;;;6211265;23;20225;-94
2022/08/16 06:19:20;;;;;;;1.00;0.70;;;19.30;99.90;;;;;;6211602;23;20220;-94
2022/08/16 06:21:56;;;;;;;0.50;0.50;;;19.30;99.90;;;;;;6210309;23;20227;-95
2022/08/16 06:24:28;;;;;;;1.80;0.70;;;19.20;99.90;;;;;;6211272;23;20235;-95
2022/08/16 06:27:20;;;;;;;0.80;0.70;;;19.20;99.90;;;;;;6211114;23;20216;-93
2022/08/16 06:29:52;;;;;;;1.60;0.60;;;19.10;99.90;;;;;;6210178;23;20241;-95
2022/08/16 06:32:24;;;;;;;3.37;1.00;;;19.00;99.90;;;;;;6206600;23;20243;-95
2022/08/16 06:34:57;;;;;;;1.73;0.80;;;19.00;99.90;;;;;;6193056;23;20176;-95
2022/08/16 06:37:34;;;;;;;1.67;0.60;;;18.90;99.90;;;;;;6190410;23;20238;-94
2022/08/16 06:40:09;;;;;;;0.97;0.43;;;18.90;99.90;;;;;;6190334;23;20165;-95
2022/08/16 06:42:45;;;;;;;3.10;0.70;;;18.90;99.90;;;;;;6195600;23;20177;-95
2022/08/16 06:45:17;;;;;;;2.03;0.80;;;18.80;99.90;;;;;;6192409;23;20207;-95
2022/08/16 06:47:49;;;;;;;1.30;0.50;;;18.80;99.90;;;;;;6191526;23;20205;-94
2022/08/16 06:50:26;;;;;;;1.00;0.60;;;18.80;99.90;;;;;;6190137;23;20183;-95
2022/08/16 06:53:04;;;;;;;1.03;0.70;;;18.70;99.90;;;;;;6188130;23;20264;-95
2022/08/16 06:55:39;;;;;;;1.07;0.50;;;18.70;99.90;;;;;;6192275;23;20180;-94
2022/08/16 06:58:16;;;;;;;1.10;0.60;;;18.60;99.90;;;;;;6195827;23;20233;-95
2022/08/16 07:00:52;;;;;;;1.47;0.60;;;18.60;99.90;;;;;;6205311;23;20177;-94
2022/08/16 07:03:29;;;;;;;2.07;0.60;;;18.60;99.90;;;;;;6194582;23;20608;-96
2022/08/16 07:06:01;;;;;;;0.47;0.40;;;18.60;99.90;;;;;;6193371;23;20208;-95
2022/08/16 07:08:36;;;;;;;1.90;0.63;;;18.60;99.90;;;;;;6191809;23;20176;-93
2022/08/16 07:11:07;;;;;;;1.43;0.60;;;18.50;99.90;;;;;;6190267;23;20176;-94
2022/08/16 07:13:39;;;;;;;2.27;0.57;;;18.50;99.90;;;;;;6190910;23;20185;-94
2022/08/16 07:16:31;;;;;;;1.43;0.77;;;18.50;99.90;;;;;;6190348;23;20252;-95
2022/08/16 07:19:03;;;;;;;1.70;0.67;;;18.40;99.90;;;;;;6189069;23;20204;-95
2022/08/16 07:21:40;;;;;;;1.13;0.70;;;18.40;99.90;;;;;;6188369;23;20182;-95
2022/08/16 07:24:27;;;;;;;1.57;0.50;;;18.40;99.90;;;;;;6191695;23;20176;-95
2022/08/16 07:27:00;;;;;;;1.80;0.50;;;18.30;99.90;;;;;;6188365;23;20533;-94
2022/08/16 07:29:32;;;;;;;1.53;0.70;;;18.30;99.90;;;;;;6188800;23;20188;-94
2022/08/16 07:32:05;;;;;;;1.03;0.57;;;18.30;99.90;;;;;;6188419;23;20173;-95
2022/08/16 07:34:36;;;;;;;0.47;0.40;;;18.20;99.90;;;;;;6189275;23;20247;-95
2022/08/16 07:37:18;;;;;;;1.63;0.70;;;18.10;99.90;;;;;;6189710;23;20169;-95
2022/08/16 07:39:55;;;;;;;1.60;0.60;;;18.10;99.90;;;;;;6189463;23;20259;-96
2022/08/16 07:42:26;;;;;;;2.27;0.80;;;18.00;99.90;;;;;;6189655;23;20251;-95
2022/08/16 07:45:05;;;;;;;1.80;0.70;;;18.00;99.90;;;;;;6190643;23;20180;-95
2022/08/16 07:47:39;;;;;;;1.30;0.80;;;17.90;99.90;;;;;;6193244;23;20207;-95
2022/08/16 07:50:12;;;;;;;0.87;0.50;;;17.90;99.90;;;;;;6190758;23;20511;-94
2022/08/16 07:53:04;;;;;;;1.13;0.83;;;17.90;99.90;;;;;;6189785;23;20185;-95
2022/08/16 07:55:39;;;;;;;1.57;0.70;;;17.90;99.90;;;;;;6190550;23;20195;-95
2022/08/16 07:58:17;;;;;;;2.80;0.70;;;17.80;99.90;;;;;;6190858;23;20247;-95
2022/08/16 08:01:06;;;;;;;0.67;0.53;;;17.80;99.90;;;;;;6191192;23;20173;-94
2022/08/16 08:03:41;;;;;;;2.47;0.67;;;17.80;99.90;;;;;;6192342;23;20199;-95
2022/08/16 08:06:18;;;;;;;1.27;0.60;;;17.80;99.90;;;;;;6192953;23;20187;-95
2022/08/16 08:08:54;;;;;;;1.77;0.60;;;17.80;99.90;;;;;;6195619;23;20185;-95
2022/08/16 08:11:31;;;;;;;1.53;0.50;;;17.80;99.90;;;;;;6189941;23;20180;-95
2022/08/16 08:14:04;;;;;;;2.23;0.70;;;17.90;99.90;;;;;;6190497;23;20176;-95
2022/08/16 08:16:36;;;;;;;2.03;0.67;;;17.90;99.90;;;;;;6190886;23;20227;-94
2022/08/16 08:19:14;;;;;;;2.43;0.73;;;17.90;99.90;;;;;;6190465;23;20287;-95
2022/08/16 08:21:46;;;;;;;2.37;0.80;;;17.90;99.90;;;;;;6190240;23;20264;-95
2022/08/16 08:24:34;;;;;;;2.57;0.90;;;17.90;99.90;;;;;;6191661;23;20530;-94
2022/08/16 08:27:09;;;;;;;0.83;0.70;;;17.90;99.90;;;;;;6190889;23;20198;-94
2022/08/16 08:29:42;;;;;;;1.00;0.60;;;17.80;99.90;;;;;;6191077;23;20177;-96
2022/08/16 08:32:34;;;;;;;1.90;0.77;;;17.80;99.90;;;;;;6191610;23;20181;-94
2022/08/16 08:35:26;;;;;;;1.50;0.67;;;17.80;99.90;;;;;;6193500;23;20531;-95
2022/08/16 08:37:58;;;;;;;1.50;0.70;;;17.70;99.90;;;;;;6195784;23;20181;-95
2022/08/16 08:40:30;;;;;;;1.87;0.57;;;17.60;99.90;;;;;;6202466;23;20181;-94
2022/08/16 08:43:04;;;;;;;1.07;0.70;;;17.60;99.90;;;;;;6205224;23;20175;-94
2022/08/16 08:45:47;;;;;;;1.20;0.60;;;17.60;99.90;;;;;;6212327;23;20252;-95
2022/08/16 08:48:23;;;;;;;2.17;0.60;;;17.70;99.90;;;;;;6211653;23;20204;-95
2022/08/16 08:51:04;;;;;;;1.17;0.70;;;17.60;99.90;;;;;;6211945;23;20208;-95
2022/08/16 08:53:39;;;;;;;2.43;0.90;;;17.50;99.90;;;;;;6212574;23;20188;-94
2022/08/16 08:56:10;;;;;;;1.87;0.70;;;17.50;99.90;;;;;;6197353;23;20538;-95
2022/08/16 08:58:56;;;;;;;0.90;0.63;;;17.50;99.90;;;;;;6191242;23;20200;-94
2022/08/16 09:01:38;;;;;;;1.03;0.70;;;17.40;99.90;;;;;;6189876;23;20195;-95
2022/08/16 09:04:15;;;;;;;1.83;0.67;;;17.40;99.90;;;;;;6191165;23;20203;-94
2022/08/16 09:06:48;;;;;;;2.30;0.80;;;17.40;99.90;;;;;;6199995;23;20193;-94
2022/08/16 09:09:19;;;;;;;1.10;0.70;;;17.40;99.90;;;;;;6189947;23;20228;-95
2022/08/16 09:11:51;;;;;;;0.80;0.60;;;17.40;99.90;;;;;;6189566;23;20231;-95
2022/08/16 09:14:39;;;;;;;1.97;1.00;;;17.40;99.90;;;;;;6189607;23;20200;-95
2022/08/16 09:17:19;;;;;;;1.23;0.70;;;17.50;99.90;;;;;;6189873;23;20177;-94
2022/08/16 09:20:13;;;;;;;1.77;0.70;;;17.40;99.90;;;;;;6188991;23;20577;-95
2022/08/16 09:22:45;;;;;;;2.80;0.50;;;17.40;99.90;;;;;;6190626;23;20184;-95
2022/08/16 09:25:22;;;;;;;1.07;0.57;;;17.40;99.90;;;;;;6189190;23;20187;-94
2022/08/16 09:28:03;;;;;;;1.73;0.60;;;17.30;99.90;;;;;;6189529;23;20243;-95
2022/08/16 09:30:41;;;;;;;1.37;0.80;;;17.30;99.90;;;;;;6189873;23;20287;-93
2022/08/16 09:33:17;;;;;;;1.63;0.53;;;17.20;99.90;;;;;;6188054;23;20177;-96
2022/08/16 09:35:50;;;;;;;0.70;0.60;;;17.30;99.90;;;;;;6189406;23;20561;-93
2022/08/16 09:38:23;;;;;;;1.30;0.77;;;17.20;99.90;;;;;;6189556;23;20165;-96
2022/08/16 09:41:02;;;;;;;1.60;0.70;;;17.10;99.90;;;;;;6192820;23;20619;-96
2022/08/16 09:43:35;;;;;;;2.70;0.93;;;17.10;99.90;;;;;;6187228;23;20269;-94
2022/08/16 09:46:29;;;;;;;2.30;0.70;;;17.10;99.90;;;;;;6189721;23;20181;-93
2022/08/16 09:49:18;;;;;;;1.27;0.70;;;17.00;99.90;;;;;;6188942;23;20196;-94
2022/08/16 09:51:52;;;;;;;2.07;0.70;;;16.90;99.90;;;;;;6188360;23;20177;-94
2022/08/16 09:54:27;;;;;;;1.97;0.80;;;16.90;99.90;;;;;;6189168;23;20547;-94
2022/08/16 09:57:01;;;;;;;1.00;0.60;;;16.80;99.90;;;;;;6188568;23;20173;-93
2022/08/16 09:59:34;;;;;;;1.77;0.77;;;16.70;99.90;;;;;;6189366;23;20220;-94
2022/08/16 10:02:12;;;;;;;1.90;0.77;;;16.60;99.90;;;;;;6187359;23;20252;-93
2022/08/16 10:04:58;;;;;;;1.70;0.70;;;16.60;99.90;;;;;;6189079;23;20161;-94
2022/08/16 10:07:32;;;;;;;1.47;0.70;;;16.60;99.90;;;;;;6188840;23;20181;-93
2022/08/16 10:10:25;;;;;;;1.67;0.80;;;16.60;99.90;;;;;;6188863;23;20196;-93
2022/08/16 10:13:11;;;;;;;2.50;0.60;;;16.60;99.90;;;;;;6187991;23;20173;-94
2022/08/16 10:15:46;;;;;;;1.27;0.73;;;16.60;99.90;;;;;;6188975;23;20180;-94
2022/08/16 10:18:28;;;;;;;0.67;0.67;;;16.60;99.90;;;;;;6189156;23;20253;-94
2022/08/16 10:21:21;;;;;;;1.03;0.60;;;16.60;99.90;;;;;;6186407;23;20217;-93
2022/08/16 10:23:53;;;;;;;1.83;0.70;;;16.60;99.90;;;;;;6188783;23;20232;-94
2022/08/16 10:26:25;;;;;;;2.00;0.90;;;16.50;99.90;;;;;;6189100;23;20562;-94
2022/08/16 10:29:16;;;;;;;2.17;0.80;;;16.50;99.90;;;;;;6189158;23;20200;-93
2022/08/16 10:31:50;;;;;;;1.10;0.63;;;16.50;99.90;;;;;;6188253;23;20201;-93
2022/08/16 10:34:25;;;;;;;2.47;0.80;;;16.50;99.90;;;;;;6189273;23;20173;-94
2022/08/16 10:37:02;;;;;;;2.63;0.70;;;16.40;99.90;;;;;;6185947;23;20251;-96
2022/08/16 10:39:34;;;;;;;1.30;0.87;;;16.40;99.90;;;;;;6163736;23;20174;-94
2022/08/16 10:42:11;;;;;;;1.10;0.60;;;16.30;99.90;;;;;;6160040;23;20220;-95
2022/08/16 10:44:43;;;;;;;2.17;0.70;;;16.30;99.90;;;;;;6160445;23;20172;-93
2022/08/16 10:47:22;;;;;;;0.73;0.50;;;16.30;99.90;;;;;;6159214;23;20212;-94
2022/08/16 10:49:58;;;;;;;0.80;0.60;;;16.40;99.90;;;;;;6159205;23;20204;-93
2022/08/16 10:52:30;;;;;;;0.50;0.50;;;16.40;99.90;;;;;;6158480;23;20181;-94
2022/08/16 10:55:02;;;;;;;1.47;0.60;;;16.40;99.90;;;;;;6158978;23;20170;-93
2022/08/16 10:57:58;;;;;;;1.27;0.60;;;16.40;99.90;;;;;;6184400;23;20247;-95
2022/08/16 11:00:41;;;;;;;0.70;0.40;;;16.40;99.90;;;;;;6189711;23;20619;-94
2022/08/16 11:03:16;;;;;;;2.40;0.90;;;16.30;99.90;;;;;;6189332;23;20184;-95
2022/08/16 11:06:10;;;;;;;1.67;0.77;;;16.30;99.90;;;;;;6189315;23;20256;-95
2022/08/16 11:08:42;;;;;;;6.83;1.10;;;16.30;99.90;;;;;;6188850;23;20270;-95
2022/08/16 11:11:15;;;;;;;1.57;0.83;;;16.30;99.90;;;;;;6188341;23;20217;-95
2022/08/16 11:13:51;;;;;;;1.03;0.47;;;16.30;99.90;;;;;;6194019;23;20542;-92
2022/08/16 11:16:40;;;;;;;2.00;0.80;;;16.20;99.90;;;;;;6192103;23;20196;-93
2022/08/16 11:19:32;;;;;;;1.27;0.83;;;16.20;99.90;;;;;;6192311;23;20245;-92
2022/08/16 11:22:25;;;;;;;1.37;0.87;;;16.20;99.90;;;;;;6190456;23;20260;-93
2022/08/16 11:25:19;;;;;;;2.40;0.50;;;16.20;99.90;;;;;;6193552;23;20177;-93
2022/08/16 11:28:14;;;;;;;1.87;0.63;;;16.20;99.90;;;;;;6193474;23;20185;-92
2022/08/16 11:31:05;;;;;;;1.47;1.00;;;16.10;99.90;;;;;;6190865;23;20239;-93
2022/08/16 11:33:37;;;;;;;3.00;0.60;;;16.10;99.90;;;;;;6193313;23;20177;-93
2022/08/16 11:36:24;;;;;;;1.37;0.60;;;16.10;99.90;;;;;;6193259;23;20161;-94
2022/08/16 11:39:00;;;;;;;1.67;0.90;;;16.10;99.90;;;;;;6192966;23;20236;-95
2022/08/16 11:41:32;;;;;;;2.00;0.80;;;16.10;99.90;;;;;;6189382;23;20645;-94
2022/08/16 11:44:04;;;;;;;3.20;0.80;;;16.10;99.90;;;;;;6191277;23;20304;-95
2022/08/16 11:46:35;;;;;;;1.70;0.60;;;16.00;99.90;;;;;;6190790;23;20165;-95
2022/08/16 11:49:15;;;;;;;2.90;0.77;;;15.90;99.90;;;;;;6191120;23;20303;-95
2022/08/16 11:51:48;;;;;;;1.43;0.63;;;15.90;99.90;;;;;;6189605;23;20196;-95
2022/08/16 11:54:22;;;;;;;3.57;0.70;;;15.90;99.90;;;;;;6190426;23;20184;-95
2022/08/16 11:57:05;;;;;;;2.37;0.60;;;15.90;99.90;;;;;;6190170;23;20185;-95
2022/08/16 11:59:38;;;;;;;1.00;0.70;;;15.90;99.90;;;;;;6190871;23;20579;-96
2022/08/16 12:02:10;;;;;;;2.93;0.60;;;15.80;99.90;;;;;;6189611;23;20235;-95
2022/08/16 12:05:01;;;;;;;3.17;0.73;;;15.80;99.90;;;;;;6190515;23;20173;-94
2022/08/16 12:07:34;;;;;;;0.67;0.60;;;15.80;99.90;;;;;;6164438;23;20691;-94
2022/08/16 12:10:11;;;;;;;1.63;0.63;;;15.80;99.90;;;;;;6189922;23;20316;-94
2022/08/16 12:12:43;;;;;;;1.17;0.60;;;15.70;99.90;;;;;;6190217;23;20185;-94
2022/08/16 12:15:16;;;;;;;4.00;0.70;;;15.70;99.90;;;;;;6190536;23;20177;-94
2022/08/16 12:17:47;;;;;;;0.57;0.57;;;15.70;99.90;;;;;;6164200;23;20204;-94
2022/08/16 12:20:24;;;;;;;1.37;0.60;;;15.70;99.90;;;;;;6189907;23;20177;-95
2022/08/16 12:22:59;;;;;;;1.47;0.60;;;15.70;99.90;;;;;;6188971;23;20712;-95
2022/08/16 12:25:34;;;;;;;0.70;0.50;;;15.60;99.90;;;;;;6190118;23;20210;-94
2022/08/16 12:28:08;;;;;;;1.50;0.60;;;15.60;99.90;;;;;;6192684;23;20183;-95
2022/08/16 12:30:41;;;;;;;1.30;0.83;;;15.60;99.90;;;;;;6190128;23;20205;-94
2022/08/16 12:33:15;;;;;;;2.07;0.80;;;15.60;99.90;;;;;;6191754;23;20800;-94
2022/08/16 12:35:54;;;;;;;2.27;0.70;;;15.60;99.90;;;;;;6190002;23;20502;-95
2022/08/16 12:38:25;;;;;;;0.67;0.60;;;15.50;99.90;;;;;;6189659;23;20176;-95
2022/08/16 12:41:18;;;;;;;1.37;0.73;;;15.50;99.90;;;;;;6169622;23;20181;-95
2022/08/16 12:43:55;;;;;;;0.70;0.40;;;15.50;99.90;;;;;;6191623;23;20223;-94
2022/08/16 12:46:31;;;;;;;1.27;0.70;;;15.50;99.90;;;;;;6191878;23;20251;-94
2022/08/16 12:49:02;;;;;;;1.20;0.73;;;15.50;99.90;;;;;;6190888;23;20212;-94
2022/08/16 12:51:35;;;;;;;1.40;0.70;;;15.50;99.90;;;;;;6190658;23;20181;-95
2022/08/16 12:54:26;;;;;;;1.93;0.70;;;15.50;99.90;;;;;;6190344;23;20204;-95
2022/08/16 12:57:01;;;;;;;1.77;0.93;;;15.50;99.90;;;;;;6190809;23;20256;-94
2022/08/16 12:59:34;;;;;;;2.07;0.73;;;15.40;99.90;;;;;;6165911;23;20180;-95
2022/08/16 13:02:09;;;;;;;3.27;0.70;;;15.40;99.90;;;;;;6190689;23;20177;-95
2022/08/16 13:04:52;;;;;;;0.87;0.77;;;15.40;99.90;;;;;;6190908;23;20173;-94
2022/08/16 13:07:23;;;;;;;1.93;0.80;;;15.40;99.90;;;;;;6190767;23;20211;-95
2022/08/16 13:09:57;;;;;;;1.57;0.60;;;15.40;99.90;;;;;;6190883;23;20200;-94
2022/08/16 13:12:39;;;;;;;0.80;0.70;;;15.30;99.90;;;;;;6190913;23;20251;-95
2022/08/16 13:15:14;;;;;;;1.10;0.70;;;15.20;99.90;;;;;;6190708;23;20165;-95
2022/08/16 13:17:47;;;;;;;1.00;0.70;;;15.20;99.90;;;;;;6190238;23;20231;-94
2022/08/16 13:20:22;;;;;;;3.03;0.80;;;15.40;99.90;;;;;;6191597;23;20161;-95
2022/08/16 13:22:59;;;;;;;1.77;0.70;;;15.30;99.90;;;;;;6189845;23;20212;-95
2022/08/16 13:25:34;;;;;;;2.83;1.10;;;15.30;99.90;;;;;;6191010;23;20239;-93
2022/08/16 13:28:08;;;;;;;2.37;0.90;;;15.30;99.90;;;;;;6190211;23;20228;-95
2022/08/16 13:30:47;;;;;;;1.03;0.80;;;15.30;99.90;;;;;;6193058;23;20211;-94
2022/08/16 13:33:22;;;;;;;1.37;0.80;;;15.30;99.90;;;;;;6191088;23;20257;-95
2022/08/16 13:36:00;;;;;;;2.07;0.80;;;15.30;99.90;;;;;;6193890;23;20185;-94
2022/08/16 13:38:31;;;;;;;2.40;0.80;;;15.30;99.90;;;;;;6191550;23;20177;-94
2022/08/16 13:41:07;;;;;;;2.43;0.80;;;15.40;99.90;;;;;;6190077;23;20219;-95
2022/08/16 13:43:42;;;;;;;0.90;0.80;;;15.40;99.90;;;;;;6191615;23;20177;-95
2022/08/16 13:46:26;;;;;;;2.43;0.60;;;15.40;99.90;;;;;;6190781;23;20165;-95
2022/08/16 13:48:59;;;;;;;2.00;0.70;;;15.40;99.90;;;;;;6190495;23;20643;-95
2022/08/16 13:51:31;;;;;;;3.33;1.13;;;15.50;99.90;;;;;;6188061;23;20205;-95
2022/08/16 13:54:04;;;;;;;2.83;0.90;;;15.50;99.90;;;;;;6189539;23;20639;-94
2022/08/16 13:56:38;;;;;;;0.93;0.80;;;15.50;99.90;;;;;;6190180;23;20224;-95
2022/08/16 13:59:13;;;;;;;1.93;0.87;;;15.50;99.90;;;;;;6190236;23;20252;-94
2022/08/16 14:01:51;;;;;;;1.00;0.80;;;15.50;99.90;;;;;;6189450;23;20183;-94
2022/08/16 14:04:27;;;;;;;3.57;1.00;;;15.50;99.90;;;;;;6189287;23;20228;-95
2022/08/16 14:06:59;;;;;;;1.67;0.90;;;15.50;99.90;;;;;;6166013;23;20172;-94
2022/08/16 14:09:32;;;;;;;1.17;0.83;;;15.50;99.90;;;;;;6191935;23;20224;-94
2022/08/16 14:12:06;;;;;;;0.90;0.80;;;15.60;99.90;;;;;;6206022;23;20177;-94
2022/08/16 14:14:51;;;;;;;2.33;1.13;;;15.60;99.90;;;;;;6211079;23;20252;-95
2022/08/16 14:17:27;;;;;;;2.03;0.80;;;15.60;99.90;;;;;;6211877;23;20199;-95
2022/08/16 14:20:19;;;;;;;1.67;0.80;;;15.70;99.90;;;;;;6211889;23;20196;-95
2022/08/16 14:22:50;;;;;;;1.90;1.07;;;15.70;99.90;;;;;;6203792;23;20213;-94
2022/08/16 14:25:24;;;;;;;2.80;1.00;;;15.80;99.90;;;;;;6189421;23;20243;-95
2022/08/16 14:27:58;;;;;;;2.83;0.90;;;15.80;99.90;;;;;;6190294;23;20173;-95
2022/08/16 14:30:31;;;;;;;2.23;1.07;;;15.80;99.90;;;;;;6189952;23;20603;-95
2022/08/16 14:33:03;;;;;;;1.40;1.10;;;15.90;99.90;;;;;;6188260;23;20615;-96
2022/08/16 14:35:35;;;;;;;2.10;1.30;;;15.90;99.90;;;;;;6189264;23;20181;-95
2022/08/16 14:38:20;;;;;;;2.50;1.23;;;16.10;99.90;;;;;;6193791;23;20615;-94
2022/08/16 14:40:53;;;;;;;2.47;1.00;;;16.10;99.90;;;;;;6190002;23;20184;-95
2022/08/16 14:43:27;;;;;;;2.53;1.03;;;16.20;99.90;;;;;;6199550;23;20177;-95
2022/08/16 14:46:06;;;;;;;3.57;1.00;;;16.30;99.90;;;;;;6206193;23;20169;-95